Terminal Aerodrome Forecast
Issued by NWS Sterling, VA

Current Version | Previous Version | Graphics & Text | Print | Product List | Glossary On
Versions: 1 2 3 4 5 6 7 8 9 10 11 12 13 14 15 16 17 18 19 20 21 22 23 24 25 26
191
FTUS41 KLWX 270533
TAFIAD
TAF
KIAD 270533Z 2706/2812 11004KT P6SM SKC
     FM270700 VRB03KT 3SM BR BKN040
     FM270900 VRB03KT 1SM BR OVC005
     FM271300 17004KT 3SM BR SCT010
     FM271500 17004KT P6SM SCT050
     FM271800 18014G22KT P6SM FEW250
     FM280300 19008KT P6SM BKN050=

USA.gov is the U.S. government's official web portal to all federal, state and local government web resources and services.